createdAt,value
2023-05-25T00:00:14.174Z,101913.16
2023-05-25T00:01:18.888Z,101916.78
2023-05-25T00:02:24.500Z,101910.72
2023-05-25T00:03:27.781Z,101919.41
2023-05-25T00:04:34.515Z,101917.91
2023-05-25T00:05:37.479Z,101918.91
2023-05-25T00:06:41.234Z,101913.84
2023-05-25T00:07:43.091Z,101916.47
2023-05-25T00:08:46.450Z,101921.88
2023-05-25T00:09:48.266Z,101915.97
2023-05-25T00:10:50.365Z,101925.50
2023-05-25T00:11:52.780Z,101918.59
2023-05-25T00:12:56.977Z,101920.25
2023-05-25T00:13:59.135Z,101918.59
2023-05-25T00:15:01.096Z,101920.41
2023-05-25T00:16:03.101Z,101916.97
2023-05-25T00:17:05.831Z,101922.22
2023-05-25T00:18:07.813Z,101917.16
2023-05-25T00:19:12.499Z,101914.03
2023-05-25T00:20:15.092Z,101914.22
2023-05-25T00:21:16.934Z,101920.13
2023-05-25T00:22:20.446Z,101918.47
2023-05-25T00:23:22.337Z,101915.19
2023-05-25T00:24:24.149Z,101922.06
2023-05-25T00:25:26.159Z,101918.78
2023-05-25T00:26:27.962Z,101912.72
2023-05-25T00:27:31.224Z,101917.78
2023-05-25T00:28:33.081Z,101921.41
2023-05-25T00:29:36.292Z,101922.22
2023-05-25T00:30:39.121Z,101919.78
2023-05-25T00:31:41.327Z,101923.22
2023-05-25T00:32:43.268Z,101924.84
2023-05-25T00:33:45.658Z,101924.19
2023-05-25T00:34:48.118Z,101920.75
2023-05-25T00:35:49.942Z,101916.34
2023-05-25T00:36:51.789Z,101913.88
2023-05-25T00:37:53.607Z,101920.09
2023-05-25T00:38:55.494Z,101910.78
2023-05-25T00:39:57.308Z,101923.53
2023-05-25T00:40:59.246Z,101920.75
2023-05-25T00:42:03.442Z,101923.38
2023-05-25T00:43:06.594Z,101922.53
2023-05-25T00:44:10.369Z,101917.31
2023-05-25T00:45:12.244Z,101915.69
2023-05-25T00:46:15.836Z,101920.75
2023-05-25T00:47:17.840Z,101923.38
2023-05-25T00:48:20.017Z,101914.03
2023-05-25T00:49:25.364Z,101915.53
2023-05-25T00:50:45.872Z,101910.59
2023-05-25T00:51:48.830Z,101915.69
2023-05-25T00:52:50.945Z,101907.19
2023-05-25T00:53:53.197Z,101918.66
2023-05-25T00:55:00.390Z,101915.84
2023-05-25T00:56:14.365Z,101915.84
2023-05-25T00:57:21.079Z,101914.03
2023-05-25T00:58:28.407Z,101911.59
2023-05-25T00:59:44.460Z,101917.66
2023-05-25T01:00:49.494Z,101909.78
2023-05-25T01:01:54.002Z,101913.41
2023-05-25T01:02:59.813Z,101912.59
2023-05-25T01:04:07.308Z,101910.78
2023-05-25T01:05:12.369Z,101910.78
2023-05-25T01:06:17.610Z,101909.97
2023-05-25T01:07:27.190Z,101909.16
2023-05-25T01:08:33.131Z,101911.94
2023-05-25T01:09:40.768Z,101923.41
2023-05-25T01:10:45.981Z,101909.00
2023-05-25T01:11:52.839Z,101909.84
2023-05-25T01:12:58.713Z,101909.97
2023-05-25T01:14:02.150Z,101919.66
2023-05-25T01:15:06.410Z,101913.59
2023-05-25T01:16:10.060Z,101916.38
2023-05-25T01:17:12.011Z,101916.38
2023-05-25T01:18:18.068Z,101920.00
2023-05-25T01:19:19.984Z,101920.63
2023-05-25T01:20:21.960Z,101926.88
2023-05-25T01:21:48.066Z,101921.00
2023-05-25T01:23:13.959Z,101926.22
2023-05-25T01:24:48.976Z,101915.88
2023-05-25T01:25:59.710Z,101921.94
2023-05-25T01:27:13.067Z,101918.69
2023-05-25T01:28:25.927Z,101918.88
2023-05-25T01:29:32.597Z,101918.03
2023-05-25T01:30:40.106Z,101916.56
2023-05-25T01:31:42.457Z,101913.31
2023-05-25T01:32:46.190Z,101908.25
2023-05-25T01:33:51.785Z,101917.72
2023-05-25T01:34:57.875Z,101917.09
2023-05-25T01:36:01.283Z,101919.72
2023-05-25T01:37:03.382Z,101918.03
2023-05-25T01:38:05.862Z,101920.84
2023-05-25T01:39:07.851Z,101925.25
2023-05-25T01:40:11.446Z,101921.00
2023-05-25T01:41:13.285Z,101920.19
2023-05-25T01:42:15.143Z,101922.00
2023-05-25T01:43:17.814Z,101917.41
2023-05-25T01:44:20.912Z,101919.38
2023-05-25T01:45:23.103Z,101929.69
2023-05-25T01:46:39.811Z,101928.06
2023-05-25T01:47:59.627Z,101923.81
2023-05-25T01:49:56.328Z,101918.72
2023-05-25T01:51:10.836Z,101920.53
2023-05-25T01:52:32.328Z,101922.31
2023-05-25T01:53:52.567Z,101922.66
2023-05-25T01:55:10.316Z,101921.84
2023-05-25T01:56:14.713Z,101920.06
2023-05-25T01:57:19.601Z,101921.03
2023-05-25T01:58:24.491Z,101923.50
2023-05-25T01:59:29.448Z,101923.50
2023-05-25T02:00:32.676Z,101915.13
2023-05-25T02:01:37.194Z,101922.00
2023-05-25T02:02:44.100Z,101919.56
2023-05-25T02:03:49.246Z,101917.75
2023-05-25T02:04:57.676Z,101916.31
2023-05-25T02:05:59.737Z,101912.19
2023-05-25T02:07:05.044Z,101914.81
2023-05-25T02:08:06.846Z,101912.19
2023-05-25T02:09:08.806Z,101916.63
2023-05-25T02:10:11.132Z,101915.81
2023-05-25T02:11:16.304Z,101915.16
2023-05-25T02:12:18.329Z,101910.09
2023-05-25T02:13:20.308Z,101906.66
2023-05-25T02:14:22.714Z,101911.06
2023-05-25T02:15:24.617Z,101909.28
2023-05-25T02:16:27.394Z,101911.22
2023-05-25T02:17:30.257Z,101905.19
2023-05-25T02:18:32.125Z,101910.41
2023-05-25T02:19:35.009Z,101917.28
2023-05-25T02:20:37.717Z,101911.41
2023-05-25T02:21:39.593Z,101911.41
2023-05-25T02:22:41.476Z,101914.03
2023-05-25T02:23:43.667Z,101921.06
2023-05-25T02:24:46.528Z,101922.03
2023-05-25T02:25:48.348Z,101915.19
2023-05-25T02:26:51.655Z,101919.56
2023-05-25T02:27:54.288Z,101922.53
2023-05-25T02:28:56.256Z,101930.38
2023-05-25T02:29:58.113Z,101927.78
2023-05-25T02:31:00.264Z,101926.13
2023-05-25T02:32:02.080Z,101928.94
2023-05-25T02:33:03.975Z,101936.09
2023-05-25T02:34:05.950Z,101934.31
2023-05-25T02:35:08.523Z,101930.88
2023-05-25T02:36:10.949Z,101934.47
2023-05-25T02:37:12.808Z,101931.03
2023-05-25T02:38:14.677Z,101933.84
2023-05-25T02:39:17.018Z,101930.53
2023-05-25T02:40:19.440Z,101930.53
2023-05-25T02:41:22.122Z,101933.31
2023-05-25T02:42:23.983Z,101936.13
2023-05-25T02:43:28.141Z,101931.69
2023-05-25T02:44:31.075Z,101930.22
2023-05-25T02:45:32.926Z,101930.38
2023-05-25T02:46:35.152Z,101935.31
2023-05-25T02:47:37.421Z,101927.75
2023-05-25T02:48:39.334Z,101932.00
2023-05-25T02:49:41.155Z,101933.00
2023-05-25T02:50:43.025Z,101929.56
2023-05-25T02:51:44.854Z,101928.91
2023-05-25T02:52:46.780Z,101916.81
2023-05-25T02:53:48.654Z,101927.28
2023-05-25T02:54:50.761Z,101922.69
2023-05-25T02:55:52.830Z,101921.88
2023-05-25T02:56:54.701Z,101925.31
2023-05-25T02:57:56.907Z,101925.50
2023-05-25T02:58:58.947Z,101924.50
2023-05-25T03:00:00.892Z,101920.91
2023-05-25T03:01:05.155Z,101924.34
2023-05-25T03:02:07.011Z,101922.69
2023-05-25T03:03:09.062Z,101921.88
2023-05-25T03:04:11.155Z,101917.63
2023-05-25T03:05:13.019Z,101923.69
2023-05-25T03:06:15.014Z,101918.47
2023-05-25T03:07:16.904Z,101919.44
2023-05-25T03:08:18.822Z,101918.63
2023-05-25T03:09:20.846Z,101922.88
2023-05-25T03:10:22.635Z,101922.88
2023-05-25T03:11:24.516Z,101929.91
2023-05-25T03:12:26.667Z,101928.91
2023-05-25T03:13:28.521Z,101934.16
2023-05-25T03:14:30.355Z,101927.28
2023-05-25T03:15:32.586Z,101926.31
2023-05-25T03:16:36.304Z,101930.56
2023-05-25T03:17:38.508Z,101930.56
2023-05-25T03:18:40.377Z,101926.94
2023-05-25T03:19:42.605Z,101929.41
2023-05-25T03:20:45.709Z,101926.78
2023-05-25T03:21:47.764Z,101925.97
2023-05-25T03:22:49.605Z,101927.75
2023-05-25T03:23:51.497Z,101930.56
2023-05-25T03:24:53.428Z,101927.94
2023-05-25T03:25:55.452Z,101937.41
2023-05-25T03:26:57.929Z,101936.44
2023-05-25T03:27:59.784Z,101940.84
2023-05-25T03:29:01.633Z,101938.41
2023-05-25T03:30:04.059Z,101941.03
2023-05-25T03:31:05.917Z,101941.03
2023-05-25T03:32:08.078Z,101946.41
2023-05-25T03:33:09.987Z,101933.47
2023-05-25T03:34:11.836Z,101938.72
2023-05-25T03:35:13.779Z,101939.69
2023-05-25T03:36:17.542Z,101941.19
2023-05-25T03:37:19.407Z,101948.38
2023-05-25T03:38:21.234Z,101944.13
2023-05-25T03:39:23.240Z,101943.94
2023-05-25T03:40:25.150Z,101940.69
2023-05-25T03:41:27.832Z,101943.13
2023-05-25T03:42:29.658Z,101948.53
2023-05-25T03:43:32.215Z,101946.72
2023-05-25T03:44:34.171Z,101942.50
2023-05-25T03:45:36.037Z,101945.91
2023-05-25T03:46:38.746Z,101943.31
2023-05-25T03:47:40.791Z,101943.13
2023-05-25T03:48:42.653Z,101944.94
2023-05-25T03:49:44.459Z,101939.69
2023-05-25T03:50:46.261Z,101937.91
2023-05-25T03:51:48.113Z,101946.56
2023-05-25T03:52:50.031Z,101942.81
2023-05-25T03:53:51.858Z,101942.66
2023-05-25T03:54:53.698Z,101942.81
2023-05-25T03:55:56.114Z,101941.84
2023-05-25T03:57:02.208Z,101956.38
2023-05-25T03:58:04.161Z,101954.75
2023-05-25T03:59:06.220Z,101958.19
2023-05-25T04:00:10.491Z,101954.59
2023-05-25T04:01:13.642Z,101956.88
2023-05-25T04:02:15.678Z,101958.69
2023-05-25T04:03:18.267Z,101960.13
2023-05-25T04:04:20.809Z,101964.56
2023-05-25T04:05:23.139Z,101962.94
2023-05-25T04:06:29.999Z,101967.19
2023-05-25T04:07:31.946Z,101963.75
2023-05-25T04:08:34.052Z,101964.72
2023-05-25T04:09:35.981Z,101972.75
2023-05-25T04:10:37.906Z,101977.00
2023-05-25T04:11:39.824Z,101972.75
2023-05-25T04:12:41.678Z,101966.69
2023-05-25T04:13:43.684Z,101974.69
2023-05-25T04:14:46.307Z,101977.31
2023-05-25T04:15:49.594Z,101977.16
2023-05-25T04:16:52.100Z,101974.38
2023-05-25T04:17:54.997Z,101968.16
2023-05-25T04:18:57.169Z,101966.19
2023-05-25T04:19:59.006Z,101964.41
2023-05-25T04:21:01.311Z,101978.16
2023-05-25T04:22:03.245Z,101967.69
2023-05-25T04:23:05.150Z,101966.88
2023-05-25T04:24:07.813Z,101969.94
2023-05-25T04:25:10.765Z,101975.06
2023-05-25T04:26:13.340Z,101974.06
2023-05-25T04:27:15.305Z,101980.13
2023-05-25T04:28:18.616Z,101976.50
2023-05-25T04:29:20.428Z,101976.34
2023-05-25T04:30:23.181Z,101979.63
2023-05-25T04:31:27.130Z,101980.28
2023-05-25T04:32:32.268Z,101976.84
2023-05-25T04:33:34.247Z,101981.91
2023-05-25T04:34:36.538Z,101986.81
2023-05-25T04:35:38.490Z,101991.06
2023-05-25T04:36:42.507Z,101986.66
2023-05-25T04:37:44.353Z,101988.13
2023-05-25T04:38:47.922Z,101986.31
2023-05-25T04:39:50.030Z,101976.50
2023-05-25T04:40:53.957Z,101974.06
2023-05-25T04:41:57.237Z,101984.84
2023-05-25T04:42:59.685Z,101995.31
2023-05-25T04:44:09.774Z,101996.78
2023-05-25T04:45:17.318Z,101992.38
2023-05-25T04:46:19.432Z,101991.22
2023-05-25T04:47:22.453Z,101994.66
2023-05-25T04:48:24.727Z,101988.59
2023-05-25T04:49:27.008Z,101984.19
2023-05-25T04:50:29.533Z,101983.22
2023-05-25T04:51:32.388Z,101979.75
2023-05-25T04:52:34.271Z,101986.47
2023-05-25T04:53:36.032Z,101989.09
2023-05-25T04:54:37.799Z,101981.06
2023-05-25T04:55:40.034Z,101984.34
2023-05-25T04:56:41.898Z,101985.19
2023-05-25T04:57:43.801Z,101988.59
2023-05-25T04:58:45.620Z,101979.75
2023-05-25T04:59:47.441Z,101985.47
2023-05-25T05:00:50.619Z,101978.59
2023-05-25T05:01:53.837Z,101975.66
2023-05-25T05:02:58.936Z,101974.84
2023-05-25T05:04:00.908Z,101971.25
2023-05-25T05:05:03.820Z,101972.69
2023-05-25T05:06:06.304Z,101979.56
2023-05-25T05:07:09.138Z,101980.25
2023-05-25T05:08:10.924Z,101980.88
2023-05-25T05:09:13.160Z,101976.28
2023-05-25T05:10:14.994Z,101979.56
2023-05-25T05:11:16.869Z,101978.41
2023-05-25T05:12:18.681Z,101977.09
2023-05-25T05:13:20.497Z,101978.56
2023-05-25T05:14:22.281Z,101974.94
2023-05-25T05:15:24.290Z,101978.06
2023-05-25T05:16:26.708Z,101974.31
2023-05-25T05:17:30.656Z,101973.16
2023-05-25T05:18:32.631Z,101982.47
2023-05-25T05:19:34.542Z,101977.91
2023-05-25T05:20:36.470Z,101979.19
2023-05-25T05:21:38.436Z,101983.09
2023-05-25T05:22:40.358Z,101981.13
2023-05-25T05:23:46.435Z,101984.41
2023-05-25T05:24:48.346Z,101984.06
2023-05-25T05:25:50.137Z,101992.56
2023-05-25T05:26:58.513Z,101994.84
2023-05-25T05:28:01.243Z,101988.44
2023-05-25T05:29:04.536Z,101995.00
2023-05-25T05:30:07.771Z,101998.09
2023-05-25T05:31:09.674Z,101990.69
2023-05-25T05:32:11.514Z,101999.22
2023-05-25T05:33:14.602Z,101996.44
2023-05-25T05:34:16.708Z,102000.69
2023-05-25T05:35:18.500Z,102001.31
2023-05-25T05:36:20.484Z,102003.63
2023-05-25T05:37:22.376Z,102003.94
2023-05-25T05:38:24.261Z,102003.44
2023-05-25T05:39:27.409Z,102004.88
2023-05-25T05:40:29.346Z,102006.53
2023-05-25T05:41:31.197Z,102008.00
2023-05-25T05:42:33.012Z,102003.38
2023-05-25T05:43:34.832Z,102010.94
2023-05-25T05:44:37.032Z,102008.94
2023-05-25T05:45:38.873Z,102008.78
2023-05-25T05:46:40.915Z,102006.81
2023-05-25T05:47:42.783Z,102005.63
2023-05-25T05:48:44.611Z,102005.28
2023-05-25T05:49:47.314Z,102007.75
2023-05-25T05:50:49.671Z,102009.38
2023-05-25T05:51:51.510Z,102006.41
2023-05-25T05:52:53.703Z,102011.47
2023-05-25T05:53:56.141Z,102007.69
2023-05-25T05:54:57.957Z,102017.03
2023-05-25T05:55:59.846Z,102009.63
2023-05-25T05:57:02.351Z,102009.28
2023-05-25T05:58:04.180Z,102008.78
2023-05-25T05:59:06.579Z,102009.53
2023-05-25T06:00:09.562Z,102011.13
2023-05-25T06:01:11.379Z,102012.97
2023-05-25T06:02:13.175Z,102018.94
2023-05-25T06:03:15.010Z,102016.16
2023-05-25T06:04:19.257Z,102012.66
2023-05-25T06:05:21.317Z,102015.84
2023-05-25T06:06:23.230Z,102014.75
2023-05-25T06:07:25.208Z,102019.50
2023-05-25T06:08:27.893Z,102016.41
2023-05-25T06:09:29.733Z,102019.09
2023-05-25T06:10:31.590Z,102018.09
2023-05-25T06:11:37.022Z,102026.59
2023-05-25T06:12:38.922Z,102014.22
2023-05-25T06:13:41.097Z,102014.16
2023-05-25T06:14:43.180Z,102013.06
2023-05-25T06:15:45.195Z,102021.84
2023-05-25T06:16:47.315Z,102020.09
2023-05-25T06:17:49.204Z,102015.06
2023-05-25T06:18:51.053Z,102018.19
2023-05-25T06:19:52.988Z,102017.81
2023-05-25T06:20:54.865Z,102022.28
2023-05-25T06:21:56.877Z,102020.88
2023-05-25T06:22:58.802Z,102022.28
2023-05-25T06:24:00.878Z,102019.84
2023-05-25T06:25:02.728Z,102020.03
2023-05-25T06:26:07.457Z,102019.63
2023-05-25T06:27:09.398Z,102020.00
2023-05-25T06:28:11.359Z,102017.50
2023-05-25T06:29:16.749Z,102013.38
2023-05-25T06:30:18.992Z,102009.84
2023-05-25T06:31:21.098Z,102016.06
2023-05-25T06:32:22.988Z,102023.34
2023-05-25T06:33:24.882Z,102020.16
2023-05-25T06:34:26.723Z,102019.47
2023-05-25T06:35:29.511Z,102019.41
2023-05-25T06:36:32.536Z,102015.53
2023-05-25T06:37:37.861Z,102017.50
2023-05-25T06:38:39.653Z,102020.94
2023-05-25T06:39:43.089Z,102022.84
2023-05-25T06:40:44.951Z,102017.06
2023-05-25T06:41:46.738Z,102016.56
2023-05-25T06:42:48.545Z,102024.38
2023-05-25T06:43:50.473Z,102019.13
2023-05-25T06:44:52.265Z,102022.91
2023-05-25T06:45:54.184Z,102026.44
2023-05-25T06:46:56.140Z,102022.66
2023-05-25T06:47:58.078Z,102021.19
2023-05-25T06:49:02.037Z,102015.81
2023-05-25T06:50:05.040Z,102020.34
2023-05-25T06:51:06.823Z,102018.44
2023-05-25T06:52:08.675Z,102019.75
2023-05-25T06:53:11.193Z,102024.53
2023-05-25T06:54:14.939Z,102023.84
2023-05-25T06:55:17.090Z,102022.34
2023-05-25T06:56:18.907Z,102019.81
2023-05-25T06:57:20.900Z,102023.31
2023-05-25T06:58:22.802Z,102020.25
2023-05-25T06:59:24.637Z,102019.53
2023-05-25T07:00:26.675Z,102026.75
2023-05-25T07:01:28.692Z,102020.50
2023-05-25T07:02:30.579Z,102015.19
2023-05-25T07:03:32.676Z,102018.78
2023-05-25T07:04:34.695Z,102024.53
2023-05-25T07:05:36.599Z,102016.53
2023-05-25T07:06:38.461Z,102016.06
2023-05-25T07:07:40.302Z,102022.19
2023-05-25T07:08:42.129Z,102017.31
2023-05-25T07:09:44.001Z,102018.88
2023-05-25T07:10:46.573Z,102024.66
2023-05-25T07:11:49.299Z,102019.63
2023-05-25T07:12:51.117Z,102018.38
2023-05-25T07:13:52.962Z,102012.81
2023-05-25T07:14:54.854Z,102013.47
2023-05-25T07:15:56.700Z,102019.78
2023-05-25T07:16:58.530Z,102014.66
2023-05-25T07:18:00.440Z,102019.66
2023-05-25T07:19:02.335Z,102020.09
2023-05-25T07:20:06.236Z,102027.63
2023-05-25T07:21:09.999Z,102018.88
2023-05-25T07:22:11.966Z,102028.25
2023-05-25T07:23:14.332Z,102027.47
2023-05-25T07:24:16.310Z,102029.00
2023-05-25T07:25:18.455Z,102022.28
2023-05-25T07:26:22.844Z,102023.00
2023-05-25T07:27:25.488Z,102027.78
2023-05-25T07:28:27.284Z,102023.00
2023-05-25T07:29:29.404Z,102026.00
2023-05-25T07:30:31.363Z,102029.53
2023-05-25T07:31:33.593Z,102024.22
2023-05-25T07:32:35.568Z,102018.53
2023-05-25T07:33:37.418Z,102028.28
2023-05-25T07:34:39.430Z,102031.75
2023-05-25T07:35:41.607Z,102025.81
2023-05-25T07:36:43.598Z,102023.25
2023-05-25T07:37:45.738Z,102031.56
2023-05-25T07:38:48.178Z,102026.72
2023-05-25T07:39:50.524Z,102029.63
2023-05-25T07:40:52.581Z,102023.19
2023-05-25T07:41:54.512Z,102031.63
2023-05-25T07:42:56.858Z,102029.16
2023-05-25T07:43:58.699Z,102033.69
2023-05-25T07:45:02.301Z,102038.03
2023-05-25T07:46:04.161Z,102027.66
2023-05-25T07:47:07.057Z,102036.66
2023-05-25T07:48:09.620Z,102033.66
2023-05-25T07:49:15.826Z,102028.78
2023-05-25T07:50:18.129Z,102035.03
2023-05-25T07:51:23.074Z,102029.66
2023-05-25T07:52:24.877Z,102035.81
2023-05-25T07:53:26.837Z,102033.72
2023-05-25T07:54:28.763Z,102035.44
2023-05-25T07:55:30.673Z,102026.44
2023-05-25T07:56:32.479Z,102027.13
2023-05-25T07:57:34.607Z,102035.25
2023-05-25T07:58:37.347Z,102033.91
2023-05-25T07:59:39.350Z,102024.34
2023-05-25T08:00:41.183Z,102038.34
2023-05-25T08:01:43.139Z,102029.25
2023-05-25T08:02:45.912Z,102031.94
2023-05-25T08:03:50.083Z,102034.28
2023-05-25T08:04:53.331Z,102034.78
2023-05-25T08:05:55.158Z,102030.47
2023-05-25T08:06:57.335Z,102029.41
2023-05-25T08:07:59.259Z,102029.13
2023-05-25T08:09:03.004Z,102038.00
2023-05-25T08:10:06.214Z,102032.44
2023-05-25T08:11:08.023Z,102034.66
2023-05-25T08:13:14.473Z,102033.28
2023-05-25T08:14:17.320Z,102031.09
2023-05-25T08:15:19.191Z,102034.00
2023-05-25T08:16:21.194Z,102039.34
2023-05-25T08:17:23.186Z,102033.13
2023-05-25T08:18:25.001Z,102034.47
2023-05-25T08:19:26.804Z,102029.34
2023-05-25T08:20:29.321Z,102041.19
2023-05-25T08:21:35.004Z,102030.97
2023-05-25T08:22:37.034Z,102029.63
2023-05-25T08:23:42.265Z,102029.59
2023-05-25T08:24:44.160Z,102027.66
2023-05-25T08:25:46.175Z,102027.09
2023-05-25T08:26:54.915Z,102025.41
2023-05-25T08:27:57.075Z,102037.75
2023-05-25T08:28:58.881Z,102042.19
2023-05-25T08:30:00.786Z,102040.94
2023-05-25T08:31:03.369Z,102035.97
2023-05-25T08:32:05.861Z,102040.19
2023-05-25T08:33:07.924Z,102039.72
2023-05-25T08:34:09.912Z,102041.53
2023-05-25T08:35:14.043Z,102039.09
2023-05-25T08:36:16.117Z,102040.06
2023-05-25T08:37:19.911Z,102035.88
2023-05-25T08:38:25.627Z,102035.13
2023-05-25T08:39:27.598Z,102031.16
2023-05-25T08:40:29.983Z,102029.34
2023-05-25T08:41:33.627Z,102034.22
2023-05-25T08:42:35.669Z,102040.41
2023-05-25T08:43:37.608Z,102037.69
2023-05-25T08:44:39.838Z,102032.63
2023-05-25T08:45:46.880Z,102035.13
2023-05-25T08:46:50.106Z,102037.59
2023-05-25T08:47:59.564Z,102039.88
2023-05-25T08:49:14.475Z,102037.38
2023-05-25T08:50:17.830Z,102038.28
2023-05-25T08:51:20.275Z,102042.09
2023-05-25T08:52:24.515Z,102030.00
2023-05-25T08:53:28.685Z,102041.09
2023-05-25T08:54:37.378Z,102038.38
2023-05-25T08:55:43.116Z,102029.91
2023-05-25T08:56:55.171Z,102032.81
2023-05-25T08:58:13.860Z,102038.63
2023-05-25T08:59:51.030Z,102040.09
2023-05-25T09:01:03.841Z,102045.09
2023-05-25T09:02:29.113Z,102040.94
2023-05-25T09:03:33.346Z,102040.75
2023-05-25T09:04:35.892Z,102044.06
2023-05-25T09:05:38.663Z,102049.44
2023-05-25T09:06:41.130Z,102041.69
2023-05-25T09:07:44.077Z,102042.00
2023-05-25T09:08:46.441Z,102043.31
2023-05-25T09:09:49.052Z,102034.19
2023-05-25T09:10:53.749Z,102035.16
2023-05-25T09:11:57.604Z,102040.78
2023-05-25T09:13:09.454Z,102036.03
2023-05-25T09:14:22.682Z,102037.53
2023-05-25T09:15:24.538Z,102042.75
2023-05-25T09:16:27.029Z,102040.44
2023-05-25T09:17:29.189Z,102047.97
2023-05-25T09:18:31.061Z,102046.59
2023-05-25T09:19:32.928Z,102040.56
2023-05-25T09:20:34.997Z,102043.84
2023-05-25T09:21:37.478Z,102034.47
2023-05-25T09:22:41.983Z,102043.88
2023-05-25T09:23:44.585Z,102049.72
2023-05-25T09:24:47.396Z,102054.50
2023-05-25T09:25:51.393Z,102051.59
2023-05-25T09:26:53.433Z,102052.66
2023-05-25T09:28:04.823Z,102047.22
2023-05-25T09:29:16.591Z,102050.38
2023-05-25T09:30:18.672Z,102055.09
2023-05-25T09:31:24.922Z,102057.44
2023-05-25T09:32:27.440Z,102050.91
2023-05-25T09:33:29.541Z,102049.72
2023-05-25T09:34:36.115Z,102055.59
2023-05-25T09:35:38.378Z,102054.38
2023-05-25T09:36:42.434Z,102054.06
2023-05-25T09:37:45.754Z,102053.38
2023-05-25T09:38:48.069Z,102054.13
2023-05-25T09:39:52.827Z,102050.00
2023-05-25T09:40:54.626Z,102054.91
2023-05-25T09:41:57.883Z,102051.59
2023-05-25T09:42:59.901Z,102055.66
2023-05-25T09:44:11.140Z,102053.50
2023-05-25T09:45:14.054Z,102050.84
2023-05-25T09:46:16.188Z,102053.75
2023-05-25T09:47:18.353Z,102051.34
2023-05-25T09:48:23.004Z,102051.75
2023-05-25T09:49:26.453Z,102053.41
2023-05-25T09:50:29.968Z,102055.31
2023-05-25T09:51:33.230Z,102051.06
2023-05-25T09:52:36.792Z,102058.66
2023-05-25T09:53:38.721Z,102053.63
2023-05-25T09:54:51.485Z,102053.16
2023-05-25T09:55:54.474Z,102055.81
2023-05-25T09:56:56.432Z,102055.66
2023-05-25T09:57:58.654Z,102054.66
2023-05-25T09:59:01.291Z,102059.22
2023-05-25T10:00:05.504Z,102062.41
2023-05-25T10:01:07.548Z,102057.50
2023-05-25T10:02:09.565Z,102059.84
2023-05-25T10:03:14.953Z,102056.84
2023-05-25T10:04:17.024Z,102061.09
2023-05-25T10:05:19.174Z,102058.34
2023-05-25T10:06:21.686Z,102057.16
2023-05-25T10:07:25.895Z,102053.25
2023-05-25T10:08:29.278Z,102063.03
2023-05-25T10:09:34.747Z,102065.75
2023-05-25T10:10:37.690Z,102070.34
2023-05-25T10:11:43.873Z,102066.19
2023-05-25T10:12:50.637Z,102061.75
2023-05-25T10:13:55.972Z,102054.41
2023-05-25T10:15:03.979Z,102061.69
2023-05-25T10:16:13.193Z,102066.38
2023-05-25T10:17:23.485Z,102060.66
2023-05-25T10:18:32.733Z,102070.72
2023-05-25T10:19:46.530Z,102066.72
2023-05-25T10:21:02.778Z,102066.41
2023-05-25T10:22:16.342Z,102071.84
2023-05-25T10:23:21.813Z,102071.69
2023-05-25T10:25:02.700Z,102067.94
2023-05-25T10:26:09.123Z,102067.97
2023-05-25T10:27:27.520Z,102068.28
2023-05-25T10:28:37.759Z,102074.47
2023-05-25T10:29:40.553Z,102073.13
2023-05-25T10:30:43.951Z,102074.47
2023-05-25T10:31:47.235Z,102067.41
2023-05-25T10:32:49.662Z,102075.56
2023-05-25T10:33:52.519Z,102068.72
2023-05-25T10:34:58.469Z,102073.72
2023-05-25T10:37:12.638Z,102071.38
2023-05-25T10:38:15.324Z,102075.56
2023-05-25T10:39:20.243Z,102071.25
2023-05-25T10:40:23.658Z,102072.91
2023-05-25T10:41:26.221Z,102065.22
2023-05-25T10:42:29.581Z,102064.19
2023-05-25T10:43:32.769Z,102070.66
2023-05-25T10:44:34.967Z,102061.38
2023-05-25T10:45:36.942Z,102058.88
2023-05-25T10:46:39.489Z,102062.13
2023-05-25T10:47:42.374Z,102068.25
2023-05-25T10:48:49.641Z,102068.00
2023-05-25T10:49:58.688Z,102069.16
2023-05-25T10:51:00.496Z,102066.84
2023-05-25T10:52:03.730Z,102069.34
2023-05-25T10:53:13.687Z,102068.09
2023-05-25T10:54:15.663Z,102066.00
2023-05-25T10:55:17.593Z,102063.09
2023-05-25T10:56:19.410Z,102055.91
2023-05-25T10:57:24.562Z,102064.47
2023-05-25T10:58:30.153Z,102062.88
2023-05-25T10:59:31.963Z,102053.81
2023-05-25T11:00:36.328Z,102061.56
2023-05-25T11:01:51.629Z,102057.59
2023-05-25T11:02:55.702Z,102057.75
2023-05-25T11:04:18.079Z,102058.28
2023-05-25T11:05:28.879Z,102061.53
2023-05-25T11:06:44.271Z,102063.63
2023-05-25T11:08:01.420Z,102057.84
2023-05-25T11:09:04.197Z,102059.34
2023-05-25T11:10:07.090Z,102056.94
2023-05-25T11:11:08.913Z,102053.78
2023-05-25T11:12:22.481Z,102056.22
2023-05-25T11:13:46.688Z,102055.53
2023-05-25T11:15:15.190Z,102062.25
2023-05-25T11:16:27.309Z,102060.84
2023-05-25T11:17:32.348Z,102061.78
2023-05-25T11:18:59.795Z,102057.41
2023-05-25T11:20:06.383Z,102057.88
2023-05-25T11:21:27.474Z,102056.72
2023-05-25T11:22:35.526Z,102055.41
2023-05-25T11:24:00.304Z,102055.78
2023-05-25T11:25:37.565Z,102061.47
2023-05-25T11:26:55.702Z,102059.25
2023-05-25T11:28:05.939Z,102056.28
2023-05-25T11:29:16.280Z,102066.19
2023-05-25T11:30:18.692Z,102069.56
2023-05-25T11:31:37.527Z,102064.00
2023-05-25T11:32:50.599Z,102066.91
2023-05-25T11:34:01.033Z,102069.56
2023-05-25T11:35:03.049Z,102067.13
2023-05-25T11:36:08.164Z,102065.19
2023-05-25T11:37:11.074Z,102063.66
2023-05-25T11:38:15.900Z,102064.47
2023-05-25T11:39:23.518Z,102066.19
2023-05-25T11:40:25.638Z,102051.38
2023-05-25T11:41:29.213Z,102060.66
2023-05-25T11:42:32.633Z,102063.53
2023-05-25T11:43:37.556Z,102066.19
2023-05-25T11:44:39.532Z,102057.41
2023-05-25T11:45:41.473Z,102058.19
2023-05-25T11:46:43.776Z,102055.84
2023-05-25T11:47:46.074Z,102054.47
2023-05-25T11:48:53.913Z,102058.59
2023-05-25T11:49:56.654Z,102063.69
2023-05-25T11:51:06.664Z,102068.19
2023-05-25T11:52:09.599Z,102066.59
2023-05-25T11:53:11.720Z,102061.94
2023-05-25T11:54:27.978Z,102058.72
2023-05-25T11:55:30.060Z,102057.09
2023-05-25T11:56:35.953Z,102051.06
2023-05-25T11:57:39.246Z,102048.66
2023-05-25T11:58:44.473Z,102052.53
2023-05-25T11:59:56.199Z,102056.56
2023-05-25T12:01:25.688Z,102052.94
2023-05-25T12:02:27.953Z,102046.06
2023-05-25T12:03:33.653Z,102045.06
2023-05-25T12:04:35.758Z,102054.28
2023-05-25T12:05:41.515Z,102054.50
2023-05-25T12:06:43.471Z,102047.22
2023-05-25T12:07:47.034Z,102049.28
2023-05-25T12:08:49.048Z,102045.59
2023-05-25T12:09:51.037Z,102051.47
2023-05-25T12:10:52.987Z,102045.34
2023-05-25T12:11:55.229Z,102046.16
2023-05-25T12:12:58.491Z,102041.91
2023-05-25T12:14:05.375Z,102057.75
2023-05-25T12:15:14.216Z,102056.13